createdAt,value
2023-10-11T00:00:52.280Z,5.65
2023-10-11T00:03:33.298Z,5.64
2023-10-11T00:06:05.198Z,5.62
2023-10-11T00:08:41.038Z,5.58
2023-10-11T00:11:08.049Z,5.51
2023-10-11T00:13:36.400Z,5.48
2023-10-11T00:16:08.136Z,5.45
2023-10-11T00:18:36.654Z,5.42
2023-10-11T00:21:16.366Z,5.36
2023-10-11T00:23:45.027Z,5.31
2023-10-11T00:26:14.978Z,5.29
2023-10-11T00:28:46.878Z,5.31
2023-10-11T00:31:18.373Z,5.32
2023-10-11T00:33:47.722Z,5.32
2023-10-11T00:36:16.851Z,5.29
2023-10-11T00:38:50.805Z,5.29
2023-10-11T00:41:21.967Z,5.26
2023-10-11T00:43:52.005Z,5.21
2023-10-11T00:46:22.640Z,5.15
2023-10-11T00:48:54.277Z,5.08
2023-10-11T00:51:24.471Z,5.01
2023-10-11T00:53:57.126Z,4.94
2023-10-11T00:56:27.283Z,4.90
2023-10-11T00:58:56.464Z,4.93
2023-10-11T01:01:23.605Z,5.00
2023-10-11T01:03:52.664Z,5.03
2023-10-11T01:06:20.326Z,5.05
2023-10-11T01:08:49.131Z,5.02
2023-10-11T01:11:16.962Z,4.98
2023-10-11T01:13:51.507Z,4.92
2023-10-11T01:16:21.324Z,4.85
2023-10-11T01:18:48.710Z,4.79
2023-10-11T01:21:15.776Z,4.72
2023-10-11T01:23:44.021Z,4.70
2023-10-11T01:26:11.950Z,4.70
2023-10-11T01:28:52.388Z,4.70
2023-10-11T01:31:19.376Z,4.73
2023-10-11T01:33:49.797Z,4.76
2023-10-11T01:36:23.711Z,4.75
2023-10-11T01:38:51.410Z,4.68
2023-10-11T01:41:22.893Z,4.66
2023-10-11T01:43:50.720Z,4.60
2023-10-11T01:46:18.918Z,4.55
2023-10-11T01:48:46.294Z,4.51
2023-10-11T01:51:16.554Z,4.47
2023-10-11T01:53:44.956Z,4.46
2023-10-11T01:56:14.240Z,4.47
2023-10-11T01:58:44.103Z,4.45
2023-10-11T02:01:26.527Z,4.35
2023-10-11T02:03:55.905Z,4.28
2023-10-11T02:06:23.934Z,4.26
2023-10-11T02:08:53.756Z,4.25
2023-10-11T02:11:25.034Z,4.28
2023-10-11T02:13:53.374Z,4.24
2023-10-11T02:16:20.128Z,4.21
2023-10-11T02:18:59.513Z,4.20
2023-10-11T02:21:37.369Z,4.22
2023-10-11T02:24:10.222Z,4.27
2023-10-11T02:26:36.942Z,4.36
2023-10-11T02:29:07.505Z,4.42
2023-10-11T02:31:38.089Z,4.42
2023-10-11T02:34:13.501Z,4.38
2023-10-11T02:36:43.515Z,4.30
2023-10-11T02:39:22.745Z,4.23
2023-10-11T02:41:50.983Z,4.14
2023-10-11T02:44:23.229Z,4.04
2023-10-11T02:46:50.755Z,3.95
2023-10-11T02:49:20.593Z,3.84
2023-10-11T02:52:00.303Z,3.75
2023-10-11T02:54:39.105Z,3.74
2023-10-11T02:57:06.697Z,3.79
2023-10-11T02:59:33.778Z,3.78
2023-10-11T03:02:00.662Z,3.70
2023-10-11T03:04:39.613Z,3.64
2023-10-11T03:07:13.413Z,3.58
2023-10-11T03:09:43.289Z,3.52
2023-10-11T03:12:20.257Z,3.48
2023-10-11T03:14:47.876Z,3.47
2023-10-11T03:17:15.605Z,3.47
2023-10-11T03:19:43.093Z,3.41
2023-10-11T03:22:12.268Z,3.37
2023-10-11T03:24:41.413Z,3.33
2023-10-11T03:27:13.770Z,3.25
2023-10-11T03:29:40.994Z,3.19
2023-10-11T03:32:07.993Z,3.14
2023-10-11T03:34:34.870Z,3.10
2023-10-11T03:37:10.859Z,3.07
2023-10-11T03:39:37.672Z,3.07
2023-10-11T03:42:07.819Z,3.10
2023-10-11T03:44:40.615Z,3.10
2023-10-11T03:47:10.555Z,3.12
2023-10-11T03:49:50.428Z,3.10
2023-10-11T03:52:31.280Z,3.09
2023-10-11T03:55:10.285Z,3.02
2023-10-11T03:57:41.942Z,2.94
2023-10-11T04:00:25.906Z,2.91
2023-10-11T04:02:59.384Z,2.91
2023-10-11T04:05:34.800Z,2.94
2023-10-11T04:08:06.502Z,2.99
2023-10-11T04:10:40.267Z,3.06
2023-10-11T04:13:14.996Z,3.12
2023-10-11T04:15:42.480Z,3.14
2023-10-11T04:18:28.705Z,3.17
2023-10-11T04:21:24.893Z,3.20
2023-10-11T04:23:58.001Z,3.25
2023-10-11T04:26:36.217Z,3.32
2023-10-11T04:29:19.426Z,3.43
2023-10-11T04:32:01.826Z,3.54
2023-10-11T04:34:32.402Z,3.56
2023-10-11T04:37:07.687Z,3.58
2023-10-11T04:39:34.841Z,3.62
2023-10-11T04:42:03.076Z,3.65
2023-10-11T04:44:42.864Z,3.69
2023-10-11T04:47:10.359Z,3.77
2023-10-11T04:49:37.141Z,3.85
2023-10-11T04:52:11.399Z,3.99
2023-10-11T04:54:42.981Z,4.16
2023-10-11T04:57:17.787Z,4.34
2023-10-11T04:59:47.251Z,4.49
2023-10-11T05:02:19.535Z,4.60
2023-10-11T05:04:47.594Z,4.73
2023-10-11T05:07:20.186Z,4.79
2023-10-11T05:09:57.327Z,4.91
2023-10-11T05:12:24.663Z,5.07
2023-10-11T05:14:54.258Z,5.25
2023-10-11T05:17:23.704Z,5.46
2023-10-11T05:20:04.698Z,5.56
2023-10-11T05:22:49.699Z,5.64
2023-10-11T05:25:20.923Z,5.69
2023-10-11T05:27:50.195Z,5.71
2023-10-11T05:30:28.436Z,5.75
2023-10-11T05:32:55.853Z,5.80
2023-10-11T05:35:24.707Z,5.83
2023-10-11T05:38:13.051Z,5.85
2023-10-11T05:40:58.230Z,5.91
2023-10-11T05:43:43.483Z,6.00
2023-10-11T05:46:28.973Z,6.13
2023-10-11T05:49:14.337Z,6.27
2023-10-11T05:51:41.331Z,6.40
2023-10-11T05:54:11.814Z,6.50
2023-10-11T05:56:48.292Z,6.59
2023-10-11T05:59:17.769Z,6.67
2023-10-11T06:01:44.885Z,6.75
2023-10-11T06:04:14.637Z,6.80
2023-10-11T06:06:47.488Z,6.86
2023-10-11T06:09:18.657Z,6.92
2023-10-11T06:11:48.795Z,6.98
2023-10-11T06:14:17.634Z,7.01
2023-10-11T06:16:50.230Z,7.09
2023-10-11T06:19:17.286Z,7.23
2023-10-11T06:21:56.939Z,7.34
2023-10-11T06:24:31.166Z,7.56
2023-10-11T06:27:12.109Z,7.81
2023-10-11T06:29:39.932Z,8.00
2023-10-11T06:32:19.969Z,8.06
2023-10-11T06:34:48.187Z,8.21
2023-10-11T06:37:18.728Z,8.31
2023-10-11T06:39:46.558Z,8.35
2023-10-11T06:42:14.884Z,8.37
2023-10-11T06:44:48.332Z,8.40
2023-10-11T06:47:16.197Z,8.39
2023-10-11T06:49:48.220Z,8.45
2023-10-11T06:52:25.745Z,8.50
2023-10-11T06:55:12.193Z,8.59
2023-10-11T06:57:42.548Z,8.70
2023-10-11T07:00:21.584Z,8.82
2023-10-11T07:03:10.349Z,8.90
2023-10-11T07:05:41.314Z,8.90
2023-10-11T07:08:11.703Z,8.89
2023-10-11T07:10:46.002Z,8.91
2023-10-11T07:13:13.876Z,8.94
2023-10-11T07:15:47.596Z,8.97
2023-10-11T07:18:23.230Z,8.99
2023-10-11T07:20:58.773Z,9.03
2023-10-11T07:23:35.893Z,9.14
2023-10-11T07:26:23.908Z,9.17
2023-10-11T07:28:52.179Z,9.19
2023-10-11T07:31:32.684Z,9.21
2023-10-11T07:34:00.394Z,9.26
2023-10-11T07:36:29.698Z,9.32
2023-10-11T07:38:57.425Z,9.40
2023-10-11T07:41:29.008Z,9.44
2023-10-11T07:43:57.342Z,9.51
2023-10-11T07:46:25.045Z,9.59
2023-10-11T07:49:04.891Z,9.73
2023-10-11T07:51:36.841Z,9.87
2023-10-11T07:54:08.040Z,9.95
2023-10-11T07:56:38.646Z,9.92
2023-10-11T07:59:09.382Z,9.91
2023-10-11T08:01:46.946Z,9.95
2023-10-11T08:04:18.534Z,9.98
2023-10-11T08:06:45.947Z,10.04
2023-10-11T08:09:20.303Z,10.14
2023-10-11T08:11:53.881Z,10.18
2023-10-11T08:14:24.458Z,10.17
2023-10-11T08:16:53.119Z,10.15
2023-10-11T08:19:22.063Z,10.18
2023-10-11T08:22:00.907Z,10.19
2023-10-11T08:24:28.883Z,10.21
2023-10-11T08:27:08.923Z,10.18
2023-10-11T08:29:43.602Z,10.18
2023-10-11T08:32:15.644Z,10.15
2023-10-11T08:34:46.698Z,10.11
2023-10-11T08:37:15.389Z,10.06
2023-10-11T08:39:44.879Z,10.05
2023-10-11T08:42:15.853Z,10.00
2023-10-11T08:44:50.530Z,9.92
2023-10-11T08:47:22.336Z,9.92
2023-10-11T08:49:53.866Z,9.91
2023-10-11T08:52:30.436Z,9.91
2023-10-11T08:55:01.884Z,9.85
2023-10-11T08:57:32.894Z,9.81
2023-10-11T09:00:04.056Z,9.78
2023-10-11T09:02:34.898Z,9.76
2023-10-11T09:05:32.145Z,9.79
2023-10-11T09:08:07.214Z,9.85
2023-10-11T09:10:40.380Z,9.89
2023-10-11T09:13:11.878Z,9.93
2023-10-11T09:15:44.890Z,10.00
2023-10-11T09:18:22.552Z,10.02
2023-10-11T09:21:08.969Z,10.00
2023-10-11T09:23:48.065Z,9.96
2023-10-11T09:26:42.299Z,9.96
2023-10-11T09:29:16.865Z,9.88
2023-10-11T09:32:05.904Z,9.83
2023-10-11T09:34:42.919Z,9.79
2023-10-11T09:37:13.937Z,9.75
2023-10-11T09:47:57.906Z,9.69
2023-10-11T09:50:41.812Z,9.60
2023-10-11T09:53:13.890Z,9.52
2023-10-11T09:55:52.553Z,9.45
2023-10-11T09:58:29.510Z,9.40
2023-10-11T10:01:09.345Z,9.40
2023-10-11T10:03:39.338Z,9.37
2023-10-11T10:06:19.208Z,9.34
2023-10-11T10:08:50.953Z,9.32
2023-10-11T10:11:20.464Z,9.33
2023-10-11T10:14:02.560Z,9.36
2023-10-11T10:17:13.876Z,9.35
2023-10-11T10:19:41.454Z,9.31
2023-10-11T10:22:23.822Z,9.31
2023-10-11T10:24:57.005Z,9.29
2023-10-11T10:27:23.915Z,9.26
2023-10-11T10:29:55.414Z,9.23
2023-10-11T10:32:22.384Z,9.20
2023-10-11T10:34:49.326Z,9.18
2023-10-11T10:37:58.316Z,9.17
2023-10-11T10:40:43.598Z,9.17
2023-10-11T10:43:21.162Z,9.21
2023-10-11T10:45:52.470Z,9.23
2023-10-11T10:48:20.592Z,9.23
2023-10-11T10:50:49.676Z,9.24
2023-10-11T10:53:18.015Z,9.22
2023-10-11T10:55:45.333Z,9.22
2023-10-11T10:58:19.407Z,9.22
2023-10-11T11:00:53.115Z,9.21
2023-10-11T11:03:21.267Z,9.18
2023-10-11T11:06:01.878Z,9.16
2023-10-11T11:08:32.514Z,9.17
2023-10-11T11:11:19.760Z,9.20
2023-10-11T11:13:50.955Z,9.24
2023-10-11T11:16:18.878Z,9.28
2023-10-11T11:18:45.958Z,9.32
2023-10-11T11:21:20.778Z,9.33
2023-10-11T11:23:50.343Z,9.32
2023-10-11T11:28:52.023Z,9.34
2023-10-11T11:31:24.817Z,9.32
2023-10-11T11:34:05.995Z,9.32
2023-10-11T11:37:00.412Z,9.33
2023-10-11T11:39:50.389Z,9.32
2023-10-11T11:42:20.508Z,9.34
2023-10-11T11:44:48.140Z,9.36
2023-10-11T11:47:23.542Z,9.37
2023-10-11T11:49:55.091Z,9.37
2023-10-11T11:52:22.585Z,9.38
2023-10-11T11:54:49.364Z,9.40
2023-10-11T11:57:16.277Z,9.42
2023-10-11T11:59:44.645Z,9.45
2023-10-11T12:02:17.802Z,9.46
2023-10-11T12:04:45.332Z,9.48
2023-10-11T12:07:12.426Z,9.50
2023-10-11T12:09:52.138Z,9.50
2023-10-11T12:12:26.698Z,9.50
2023-10-11T12:14:53.717Z,9.50
2023-10-11T12:17:21.100Z,9.50
2023-10-11T12:19:53.976Z,9.49
2023-10-11T12:22:22.839Z,9.49
2023-10-11T12:24:50.835Z,9.48
2023-10-11T12:27:18.967Z,9.47
2023-10-11T12:30:01.095Z,9.45
2023-10-11T12:32:36.947Z,9.45
2023-10-11T12:35:08.603Z,9.44
2023-10-11T12:37:36.202Z,9.45
2023-10-11T12:40:12.412Z,9.46
2023-10-11T12:42:45.627Z,9.45
2023-10-11T12:45:17.398Z,9.44
2023-10-11T12:47:45.371Z,9.44
2023-10-11T12:50:15.649Z,9.44
2023-10-11T12:52:44.526Z,9.47
2023-10-11T12:55:13.698Z,9.47
2023-10-11T12:57:41.746Z,9.48
2023-10-11T13:00:37.386Z,9.49
2023-10-11T13:03:24.494Z,9.52
2023-10-11T13:05:53.468Z,9.52
2023-10-11T13:08:29.379Z,9.54
2023-10-11T13:10:56.430Z,9.55
2023-10-11T13:13:23.921Z,9.56
2023-10-11T13:16:02.343Z,9.54
2023-10-11T13:18:34.011Z,9.53
2023-10-11T13:21:01.150Z,9.52
2023-10-11T13:23:30.175Z,9.53
2023-10-11T13:26:09.914Z,9.54
2023-10-11T13:28:41.136Z,9.53
2023-10-11T13:31:11.030Z,9.54
2023-10-11T13:33:39.199Z,9.53
2023-10-11T13:36:09.860Z,9.51
2023-10-11T13:38:38.139Z,9.50
2023-10-11T13:41:06.726Z,9.49
2023-10-11T13:43:38.090Z,9.46
2023-10-11T13:46:08.262Z,9.44
2023-10-11T13:48:42.523Z,9.42
2023-10-11T13:51:17.507Z,9.42
2023-10-11T13:53:45.023Z,9.41
2023-10-11T13:56:25.438Z,9.40
2023-10-11T13:58:53.365Z,9.38
2023-10-11T14:01:36.502Z,9.37
2023-10-11T14:04:19.805Z,9.38
2023-10-11T14:07:22.148Z,9.36
2023-10-11T14:09:55.067Z,9.32
2023-10-11T14:12:27.936Z,9.29
2023-10-11T14:14:55.966Z,9.26
2023-10-11T14:17:25.669Z,9.24
2023-10-11T14:19:54.121Z,9.21
2023-10-11T14:22:24.738Z,9.19
2023-10-11T14:24:52.533Z,9.15
2023-10-11T14:27:20.509Z,9.09
2023-10-11T14:29:48.290Z,9.05
2023-10-11T14:32:17.504Z,9.04
2023-10-11T14:34:46.435Z,9.03
2023-10-11T14:37:16.665Z,9.03
2023-10-11T14:39:47.932Z,9.00
2023-10-11T14:42:16.036Z,8.95
2023-10-11T14:44:43.450Z,8.88
2023-10-11T14:47:11.479Z,8.83
2023-10-11T14:49:38.609Z,8.81
2023-10-11T14:52:08.586Z,8.79
2023-10-11T14:54:40.017Z,8.75
2023-10-11T14:57:08.748Z,8.70
2023-10-11T14:59:35.921Z,8.68
2023-10-11T15:02:03.829Z,8.66
2023-10-11T15:04:34.468Z,8.64
2023-10-11T15:07:07.231Z,8.61
2023-10-11T15:09:35.440Z,8.56
2023-10-11T15:12:03.180Z,8.52
2023-10-11T15:14:30.331Z,8.51
2023-10-11T15:17:00.403Z,8.49
2023-10-11T15:19:29.063Z,8.44
2023-10-11T15:21:56.228Z,8.39
2023-10-11T15:24:24.060Z,8.35
2023-10-11T15:26:51.442Z,8.32
2023-10-11T15:29:18.668Z,8.27
2023-10-11T15:31:46.262Z,8.23
2023-10-11T15:34:15.036Z,8.18
2023-10-11T15:36:43.437Z,8.14
2023-10-11T15:39:11.441Z,8.13
2023-10-11T15:41:38.984Z,8.18
2023-10-11T15:44:06.108Z,8.24
2023-10-11T15:46:34.992Z,8.28
2023-10-11T15:49:08.349Z,8.31
2023-10-11T15:51:35.546Z,8.33
2023-10-11T15:54:03.054Z,8.36
2023-10-11T15:56:32.742Z,8.36
2023-10-11T15:59:00.139Z,8.36
2023-10-11T16:01:28.624Z,8.35
2023-10-11T16:03:57.187Z,8.33
2023-10-11T16:06:27.035Z,8.30
2023-10-11T16:08:54.244Z,8.29
2023-10-11T16:11:23.013Z,8.27
2023-10-11T16:13:51.175Z,8.24
2023-10-11T16:16:18.909Z,8.21
2023-10-11T16:18:47.090Z,8.17
2023-10-11T16:21:18.564Z,8.14
2023-10-11T16:23:47.346Z,8.11
2023-10-11T16:26:15.199Z,8.09
2023-10-11T16:28:43.303Z,8.07
2023-10-11T16:31:13.589Z,8.07
2023-10-11T16:33:42.420Z,8.08
2023-10-11T16:36:11.789Z,8.09
2023-10-11T16:38:45.969Z,8.09
2023-10-11T16:41:19.040Z,8.11
2023-10-11T16:43:46.322Z,8.12
2023-10-11T16:46:36.728Z,8.12
2023-10-11T16:49:05.374Z,8.10
2023-10-11T16:51:33.019Z,8.08
2023-10-11T16:54:00.935Z,8.06
2023-10-11T16:56:35.022Z,8.05
2023-10-11T16:59:06.239Z,8.02
2023-10-11T17:01:36.001Z,8.00
2023-10-11T17:04:08.166Z,7.96
2023-10-11T17:06:36.201Z,7.94
2023-10-11T17:09:07.771Z,7.94
2023-10-11T17:11:35.741Z,7.93
2023-10-11T17:14:09.288Z,7.93
2023-10-11T17:16:37.962Z,7.92
2023-10-11T17:19:09.709Z,7.92
2023-10-11T17:21:46.655Z,7.89
2023-10-11T17:24:14.744Z,7.82
2023-10-11T17:26:43.056Z,7.77
2023-10-11T17:29:11.272Z,7.73
2023-10-11T17:31:38.500Z,7.72
2023-10-11T17:34:08.802Z,7.69
2023-10-11T17:36:38.158Z,7.66
2023-10-11T17:39:06.071Z,7.60
2023-10-11T17:41:39.055Z,7.54
2023-10-11T17:44:08.965Z,7.51
2023-10-11T17:46:36.786Z,7.49
2023-10-11T17:49:05.162Z,7.48
2023-10-11T17:51:32.601Z,7.49
2023-10-11T17:54:02.838Z,7.48
2023-10-11T17:56:31.140Z,7.48
2023-10-11T17:59:09.797Z,7.46
2023-10-11T18:01:58.223Z,7.47
2023-10-11T18:04:25.611Z,7.45
2023-10-11T18:06:54.054Z,7.45
2023-10-11T18:09:21.906Z,7.44
2023-10-11T18:11:49.222Z,7.44
2023-10-11T18:14:25.319Z,7.41
2023-10-11T18:16:52.523Z,7.40
2023-10-11T18:19:21.268Z,7.35
2023-10-11T18:21:49.429Z,7.29
2023-10-11T18:24:19.024Z,7.23
2023-10-11T18:26:48.995Z,7.19
2023-10-11T18:29:19.212Z,7.16
2023-10-11T18:31:49.092Z,7.11
2023-10-11T18:34:18.547Z,7.10
2023-10-11T18:36:48.291Z,7.09
2023-10-11T18:39:18.974Z,7.08
2023-10-11T18:41:49.733Z,7.06
2023-10-11T18:44:17.084Z,7.02
2023-10-11T18:46:47.518Z,6.99
2023-10-11T18:49:17.339Z,6.96
2023-10-11T18:51:45.415Z,6.90
2023-10-11T18:54:14.438Z,6.88
2023-10-11T18:56:41.810Z,6.87
2023-10-11T18:59:09.415Z,6.85
2023-10-11T19:01:36.482Z,6.82
2023-10-11T19:04:10.468Z,6.78
2023-10-11T19:06:39.667Z,6.75
2023-10-11T19:09:07.678Z,6.73
2023-10-11T19:11:37.552Z,6.70
2023-10-11T19:14:04.995Z,6.66
2023-10-11T19:16:33.458Z,6.64
2023-10-11T19:19:01.140Z,6.60
2023-10-11T19:21:28.628Z,6.57
2023-10-11T19:23:57.027Z,6.55
2023-10-11T19:26:24.153Z,6.56
2023-10-11T19:28:53.096Z,6.55
2023-10-11T19:31:20.204Z,6.54
2023-10-11T19:33:47.809Z,6.54
2023-10-11T19:36:16.725Z,6.56
2023-10-11T19:38:43.860Z,6.57
2023-10-11T19:41:11.948Z,6.56
2023-10-11T19:43:38.794Z,6.59
2023-10-11T19:46:07.400Z,6.64
2023-10-11T19:48:35.978Z,6.69
2023-10-11T19:51:03.052Z,6.72
2023-10-11T19:53:30.336Z,6.74
2023-10-11T19:55:58.944Z,6.75
2023-10-11T19:58:26.272Z,6.78
2023-10-11T20:00:53.485Z,6.81
2023-10-11T20:03:27.613Z,6.83
2023-10-11T20:05:55.048Z,6.85
2023-10-11T20:08:23.292Z,6.87
2023-10-11T20:11:01.783Z,6.90
2023-10-11T20:13:28.615Z,6.90
2023-10-11T20:15:56.954Z,6.88
2023-10-11T20:18:24.321Z,6.87
2023-10-11T20:20:55.830Z,6.88
2023-10-11T20:23:23.333Z,6.91
2023-10-11T20:25:51.378Z,6.96
2023-10-11T20:28:18.509Z,7.01
2023-10-11T20:30:52.810Z,7.01
2023-10-11T20:33:23.429Z,7.02
2023-10-11T20:35:52.614Z,7.06
2023-10-11T20:38:21.557Z,7.11
2023-10-11T20:40:48.685Z,7.08
2023-10-11T20:43:17.969Z,7.03
2023-10-11T20:45:47.511Z,7.02
2023-10-11T20:48:15.693Z,6.98
2023-10-11T20:50:43.792Z,6.94
2023-10-11T20:53:11.743Z,6.89
2023-10-11T20:55:43.419Z,6.86
2023-10-11T20:58:15.324Z,6.83
2023-10-11T21:01:06.269Z,6.80
2023-10-11T21:03:36.293Z,6.78
2023-10-11T21:06:03.277Z,6.75
2023-10-11T21:08:31.482Z,6.69
2023-10-11T21:10:58.571Z,6.61
2023-10-11T21:13:29.491Z,6.58
2023-10-11T21:16:00.588Z,6.56
2023-10-11T21:18:27.973Z,6.54
2023-10-11T21:20:55.259Z,6.51
2023-10-11T21:23:22.695Z,6.49
2023-10-11T21:26:03.032Z,6.48
2023-10-11T21:28:32.097Z,6.46
2023-10-11T21:30:59.758Z,6.43
2023-10-11T21:33:29.616Z,6.42
2023-10-11T21:35:59.519Z,6.40
2023-10-11T21:38:26.377Z,6.37
2023-10-11T21:40:56.016Z,6.37
2023-10-11T21:43:24.035Z,6.36
2023-10-11T21:45:51.676Z,6.33
2023-10-11T21:48:20.081Z,6.32
2023-10-11T21:50:46.840Z,6.33
2023-10-11T21:53:14.655Z,6.33
2023-10-11T21:55:42.821Z,6.30
2023-10-11T21:58:11.120Z,6.29
2023-10-11T22:00:48.274Z,6.29
2023-10-11T22:03:20.117Z,6.28
2023-10-11T22:06:05.396Z,6.28
2023-10-11T22:08:36.086Z,6.28
2023-10-11T22:11:04.833Z,6.28
2023-10-11T22:13:34.650Z,6.27
2023-10-11T22:16:03.021Z,6.27
2023-10-11T22:18:30.007Z,6.24
2023-10-11T22:20:59.252Z,6.23
2023-10-11T22:23:26.508Z,6.22
2023-10-11T22:25:53.457Z,6.19
2023-10-11T22:28:20.356Z,6.17
2023-10-11T22:30:47.952Z,6.15
2023-10-11T22:33:15.051Z,6.14
2023-10-11T22:35:45.091Z,6.12
2023-10-11T22:38:12.064Z,6.11
2023-10-11T22:40:39.485Z,6.08
2023-10-11T22:43:27.824Z,6.05
2023-10-11T22:45:57.829Z,6.03
2023-10-11T22:48:25.472Z,6.02
2023-10-11T22:50:52.528Z,5.99
2023-10-11T22:53:23.259Z,5.98
2023-10-11T22:55:50.775Z,5.97
2023-10-11T22:58:18.853Z,5.95
2023-10-11T23:00:46.690Z,5.95
2023-10-11T23:03:14.326Z,5.94
2023-10-11T23:05:43.865Z,5.93
2023-10-11T23:08:10.756Z,5.93
2023-10-11T23:10:44.301Z,5.91
2023-10-11T23:13:12.437Z,5.89
2023-10-11T23:16:05.680Z,5.87
2023-10-11T23:18:44.037Z,5.86
2023-10-11T23:21:16.433Z,5.84
2023-10-11T23:23:43.261Z,5.83
2023-10-11T23:26:12.970Z,5.83
2023-10-11T23:28:40.222Z,5.82
2023-10-11T23:31:16.632Z,5.80
2023-10-11T23:33:50.975Z,5.79
2023-10-11T23:36:34.700Z,5.78
2023-10-11T23:39:02.186Z,5.76
2023-10-11T23:41:36.265Z,5.76
2023-10-11T23:44:22.704Z,5.75
2023-10-11T23:46:57.285Z,5.71
2023-10-11T23:49:41.124Z,5.70
2023-10-11T23:52:21.454Z,5.68
2023-10-11T23:54:51.193Z,5.65
2023-10-11T23:57:22.649Z,5.64
2023-10-11T23:59:50.250Z,5.62
